N67748 CYKF-CYXU
Flight info
| Callsign | N67748 |
|---|---|
| Flight time | N/A |
| Altitude | 2000 |
| Route | CYKF/26 VFR WESTBOUND |
| Aircraft | H125 |
Departure
| Time | 2026-05-05 22:40 |
|---|---|
| Airport | Region of Waterloo International Airport (CYKF) |
Arrival
| Time | N/A |
|---|---|
| Airport | London International Airport (CYXU) |
| Time | Latitude | Longitude | Altitude | Speed | Heading |
|---|---|---|---|---|---|
| 2026-05-05 22:37 | 43.45455 | -80.38237 | 1029 ft | 0 kts | 220° |
| 2026-05-05 22:38 | 43.45410 | -80.38111 | 1182 ft | 41 kts | 98° |
| 2026-05-05 22:38 | 43.45379 | -80.37754 | 1572 ft | 36 kts | 353° |
| 2026-05-05 22:38 | 43.45236 | -80.37310 | 1522 ft | 97 kts | 177° |
| 2026-05-05 22:38 | 43.45124 | -80.37316 | 1433 ft | 105 kts | 201° |
| 2026-05-05 22:39 | 43.44811 | -80.37562 | 1623 ft | 75 kts | 205° |
| 2026-05-05 22:39 | 43.43941 | -80.37868 | 1546 ft | 114 kts | 196° |
| 2026-05-05 22:39 | 43.43119 | -80.38014 | 1571 ft | 120 kts | 188° |
| 2026-05-05 22:39 | 43.42295 | -80.38347 | 1579 ft | 121 kts | 206° |
| 2026-05-05 22:40 | 43.41724 | -80.38677 | 1561 ft | 132 kts | 203° |
| 2026-05-05 22:40 | 43.41276 | -80.38818 | 1853 ft | 106 kts | 192° |
| 2026-05-05 22:40 | 43.40747 | -80.38965 | 1645 ft | 126 kts | 198° |
| 2026-05-05 22:40 | 43.39841 | -80.39232 | 1440 ft | 137 kts | 202° |
| 2026-05-05 22:41 | 43.39013 | -80.39765 | 1399 ft | 114 kts | 204° |
| 2026-05-05 22:41 | 43.38264 | -80.40093 | 1668 ft | 118 kts | 202° |
| 2026-05-05 22:41 | 43.37507 | -80.40378 | 1531 ft | 109 kts | 200° |
| 2026-05-05 22:41 | 43.36816 | -80.40753 | 1362 ft | 111 kts | 221° |
| 2026-05-05 22:42 | 43.36020 | -80.41477 | 1772 ft | 103 kts | 212° |
| 2026-05-05 22:42 | 43.35521 | -80.41778 | 1713 ft | 129 kts | 204° |
| 2026-05-05 22:42 | 43.34666 | -80.42430 | 1629 ft | 140 kts | 211° |
| 2026-05-05 22:42 | 43.33769 | -80.42886 | 1388 ft | 130 kts | 212° |
| 2026-05-05 22:43 | 43.33135 | -80.43551 | 1577 ft | 102 kts | 204° |
| 2026-05-05 22:43 | 43.32587 | -80.44199 | 1840 ft | 80 kts | 209° |